createdAt,value
2017-12-19T00:01:39.627Z,101153.05
2017-12-19T00:04:14.060Z,101153.39
2017-12-19T00:06:47.630Z,101157.53
2017-12-19T00:09:22.475Z,101157.81
2017-12-19T00:11:58.398Z,101152.21
2017-12-19T00:14:32.427Z,101159.79
2017-12-19T00:17:07.148Z,101168.39
2017-12-19T00:19:41.490Z,101166.03
2017-12-19T00:22:25.782Z,101169.20
2017-12-19T00:24:59.890Z,101182.69
2017-12-19T00:27:36.627Z,101192.65
2017-12-19T00:30:13.825Z,101188.70
2017-12-19T00:32:47.477Z,101182.64
2017-12-19T00:35:22.434Z,101175.02
2017-12-19T00:37:57.036Z,101187.46
2017-12-19T00:40:31.618Z,101182.53
2017-12-19T00:43:05.428Z,101186.78
2017-12-19T00:45:40.926Z,101196.18
2017-12-19T00:48:15.012Z,101188.34
2017-12-19T00:50:49.121Z,101187.33
2017-12-19T00:53:23.525Z,101188.61
2017-12-19T00:55:58.275Z,101195.34
2017-12-19T00:58:33.149Z,101206.34
2017-12-19T01:01:07.118Z,101208.04
2017-12-19T01:03:41.009Z,101202.38
2017-12-19T01:06:22.252Z,101213.05
2017-12-19T01:08:56.519Z,101216.63
2017-12-19T01:11:30.515Z,101227.62
2017-12-19T01:14:04.996Z,101234.05
2017-12-19T01:16:44.425Z,101241.51
2017-12-19T01:19:20.689Z,101249.16
2017-12-19T01:21:55.068Z,101247.58
2017-12-19T01:27:14.095Z,101257.27
2017-12-19T01:29:48.884Z,101253.91
2017-12-19T01:32:23.856Z,101248.38
2017-12-19T01:34:58.571Z,101247.34
2017-12-19T01:37:33.914Z,101244.52
2017-12-19T01:40:08.547Z,101247.02
2017-12-19T01:42:50.769Z,101247.00
2017-12-19T01:45:25.086Z,101254.16
2017-12-19T01:48:01.787Z,101262.09
2017-12-19T01:50:37.076Z,101272.05
2017-12-19T01:53:11.517Z,101285.75
2017-12-19T01:55:49.938Z,101280.34
2017-12-19T01:58:26.626Z,101288.72
2017-12-19T02:01:01.852Z,101288.82
2017-12-19T02:03:36.795Z,101296.81
2017-12-19T02:06:15.867Z,101294.41
2017-12-19T02:08:51.353Z,101299.19
2017-12-19T02:11:26.729Z,101307.20
2017-12-19T02:14:01.082Z,101303.11
2017-12-19T02:16:42.109Z,101317.98
2017-12-19T02:19:16.688Z,101328.14
2017-12-19T02:21:50.903Z,101323.55
2017-12-19T02:24:25.550Z,101322.59
2017-12-19T02:27:00.572Z,101321.14
2017-12-19T02:29:35.443Z,101320.64
2017-12-19T02:32:10.632Z,101325.67
2017-12-19T02:34:46.057Z,101311.44
2017-12-19T02:37:21.681Z,101309.64
2017-12-19T02:39:55.913Z,101306.38
2017-12-19T02:42:39.967Z,101304.11
2017-12-19T02:45:16.961Z,101293.24
2017-12-19T02:47:52.415Z,101289.67
2017-12-19T02:50:28.132Z,101293.34
2017-12-19T02:53:06.176Z,101298.89
2017-12-19T02:55:46.406Z,101286.54
2017-12-19T02:58:23.657Z,101303.72
2017-12-19T03:00:58.126Z,101305.61
2017-12-19T03:03:33.416Z,101304.25
2017-12-19T03:06:07.901Z,101313.36
2017-12-19T03:08:42.722Z,101313.69
2017-12-19T03:11:17.970Z,101315.02
2017-12-19T03:13:51.974Z,101312.95
2017-12-19T03:16:27.232Z,101315.06
2017-12-19T03:19:01.984Z,101323.33
2017-12-19T03:21:35.699Z,101319.16
2017-12-19T03:24:11.423Z,101316.77
2017-12-19T03:26:46.264Z,101313.11
2017-12-19T03:29:24.027Z,101315.63
2017-12-19T03:31:59.626Z,101322.63
2017-12-19T03:34:34.607Z,101331.11
2017-12-19T03:37:08.907Z,101322.53
2017-12-19T03:39:45.802Z,101320.42
2017-12-19T03:42:21.514Z,101315.73
2017-12-19T03:44:56.150Z,101312.20
2017-12-19T03:47:31.771Z,101310.84
2017-12-19T03:50:07.714Z,101302.69
2017-12-19T03:52:42.682Z,101303.50
2017-12-19T03:55:18.330Z,101304.34
2017-12-19T03:57:52.695Z,101317.59
2017-12-19T04:00:28.263Z,101317.16
2017-12-19T04:03:03.351Z,101323.44
2017-12-19T04:05:37.590Z,101320.63
2017-12-19T04:08:12.680Z,101327.08
2017-12-19T04:10:47.016Z,101333.52
2017-12-19T04:13:22.477Z,101343.07
2017-12-19T04:15:58.108Z,101347.61
2017-12-19T04:18:35.115Z,101343.77
2017-12-19T04:21:10.298Z,101346.28
2017-12-19T04:23:45.440Z,101338.13
2017-12-19T04:26:19.995Z,101343.63
2017-12-19T04:28:54.680Z,101349.31
2017-12-19T04:31:30.053Z,101345.33
2017-12-19T04:34:05.660Z,101349.42
2017-12-19T04:36:44.021Z,101348.28
2017-12-19T04:39:19.045Z,101347.77
2017-12-19T04:41:54.065Z,101349.29
2017-12-19T04:44:28.728Z,101355.19
2017-12-19T04:47:03.458Z,101360.73
2017-12-19T04:49:39.393Z,101369.88
2017-12-19T04:52:14.970Z,101366.87
2017-12-19T04:54:50.325Z,101373.68
2017-12-19T04:57:26.017Z,101382.81
2017-12-19T05:00:02.839Z,101380.31
2017-12-19T05:02:40.765Z,101381.05
2017-12-19T05:05:16.469Z,101383.64
2017-12-19T05:07:51.178Z,101378.02
2017-12-19T05:13:22.406Z,101391.78
2017-12-19T05:15:56.710Z,101390.34
2017-12-19T05:18:31.622Z,101392.58
2017-12-19T05:21:06.218Z,101394.48
2017-12-19T05:23:40.263Z,101397.90
2017-12-19T05:26:16.947Z,101391.80
2017-12-19T05:28:53.493Z,101388.37
2017-12-19T05:31:27.227Z,101402.66
2017-12-19T05:34:01.293Z,101396.99
2017-12-19T05:36:38.813Z,101409.80
2017-12-19T05:39:13.330Z,101410.27
2017-12-19T05:41:49.877Z,101414.32
2017-12-19T05:44:25.246Z,101416.76
2017-12-19T05:46:59.773Z,101419.30
2017-12-19T05:49:36.578Z,101413.11
2017-12-19T05:52:11.271Z,101422.44
2017-12-19T05:54:45.472Z,101429.49
2017-12-19T05:57:20.390Z,101431.64
2017-12-19T05:59:55.055Z,101432.99
2017-12-19T06:02:30.110Z,101433.38
2017-12-19T06:05:04.839Z,101449.34
2017-12-19T06:07:41.644Z,101452.55
2017-12-19T06:10:16.669Z,101454.39
2017-12-19T06:12:53.254Z,101455.26
2017-12-19T06:15:27.959Z,101452.69
2017-12-19T06:18:02.541Z,101449.71
2017-12-19T06:20:37.552Z,101453.29
2017-12-19T06:23:11.873Z,101448.81
2017-12-19T06:25:46.623Z,101438.22
2017-12-19T06:28:22.600Z,101445.15
2017-12-19T06:30:57.923Z,101447.13
2017-12-19T06:33:34.108Z,101443.80
2017-12-19T06:36:08.457Z,101444.22
2017-12-19T06:38:42.489Z,101443.32
2017-12-19T06:41:16.524Z,101456.33
2017-12-19T06:43:49.910Z,101442.25
2017-12-19T06:46:24.010Z,101454.50
2017-12-19T06:48:59.148Z,101459.98
2017-12-19T06:51:34.006Z,101464.22
2017-12-19T06:54:09.657Z,101461.34
2017-12-19T06:56:43.898Z,101463.09
2017-12-19T06:59:18.773Z,101464.52
2017-12-19T07:01:54.505Z,101468.01
2017-12-19T07:04:28.582Z,101463.45
2017-12-19T07:07:02.805Z,101471.64
2017-12-19T07:09:39.305Z,101485.08
2017-12-19T07:12:13.429Z,101487.00
2017-12-19T07:14:48.709Z,101492.32
2017-12-19T07:17:30.612Z,101488.14
2017-12-19T07:20:06.037Z,101488.04
2017-12-19T07:22:41.990Z,101478.81
2017-12-19T07:25:17.140Z,101480.38
2017-12-19T07:27:51.920Z,101489.28
2017-12-19T07:30:28.447Z,101488.56
2017-12-19T07:33:03.494Z,101498.22
2017-12-19T07:35:38.710Z,101492.62
2017-12-19T07:38:12.747Z,101498.86
2017-12-19T07:40:47.651Z,101500.63
2017-12-19T07:43:22.198Z,101512.16
2017-12-19T07:45:57.768Z,101515.64
2017-12-19T07:48:31.885Z,101513.44
2017-12-19T07:51:06.426Z,101510.32
2017-12-19T07:53:41.410Z,101517.92
2017-12-19T07:56:22.937Z,101518.42
2017-12-19T07:58:57.488Z,101518.28
2017-12-19T08:01:33.188Z,101520.70
2017-12-19T08:04:07.266Z,101522.84
2017-12-19T08:06:43.372Z,101515.59
2017-12-19T08:09:17.988Z,101504.50
2017-12-19T08:11:51.985Z,101509.18
2017-12-19T08:14:27.035Z,101510.45
2017-12-19T08:17:01.413Z,101515.07
2017-12-19T08:19:48.876Z,101519.16
2017-12-19T08:22:23.053Z,101519.70
2017-12-19T08:24:57.116Z,101532.78
2017-12-19T08:27:31.005Z,101525.27
2017-12-19T08:30:07.554Z,101535.02
2017-12-19T08:32:42.037Z,101531.48
2017-12-19T08:35:16.369Z,101534.71
2017-12-19T08:37:51.263Z,101539.03
2017-12-19T08:40:25.647Z,101548.80
2017-12-19T08:43:00.267Z,101547.75
2017-12-19T08:45:35.616Z,101552.78
2017-12-19T08:48:16.949Z,101561.70
2017-12-19T08:50:52.602Z,101558.64
2017-12-19T08:53:27.403Z,101559.56
2017-12-19T08:56:05.452Z,101565.21
2017-12-19T08:58:40.544Z,101567.01
2017-12-19T09:01:16.552Z,101567.39
2017-12-19T09:03:50.567Z,101575.61
2017-12-19T09:06:25.196Z,101586.20
2017-12-19T09:09:00.148Z,101585.53
2017-12-19T09:11:34.782Z,101592.52
2017-12-19T09:14:10.076Z,101602.48
2017-12-19T09:16:44.344Z,101587.44
2017-12-19T09:19:18.358Z,101597.01
2017-12-19T09:21:52.987Z,101595.52
2017-12-19T09:24:30.010Z,101598.88
2017-12-19T09:27:05.022Z,101611.03
2017-12-19T09:29:39.007Z,101609.95
2017-12-19T09:32:14.888Z,101602.70
2017-12-19T09:34:50.212Z,101610.24
2017-12-19T09:37:24.512Z,101618.47
2017-12-19T09:39:59.733Z,101632.49
2017-12-19T09:42:35.036Z,101623.75
2017-12-19T09:45:09.733Z,101635.73
2017-12-19T09:47:46.156Z,101630.02
2017-12-19T09:50:30.110Z,101624.83
2017-12-19T09:53:04.647Z,101634.03
2017-12-19T09:55:40.070Z,101636.06
2017-12-19T09:58:16.005Z,101628.92
2017-12-19T10:00:50.065Z,101633.53
2017-12-19T10:03:24.639Z,101640.75
2017-12-19T10:05:58.628Z,101648.80
2017-12-19T10:08:35.032Z,101642.31
2017-12-19T10:11:09.764Z,101636.04
2017-12-19T10:13:43.799Z,101632.72
2017-12-19T10:16:21.979Z,101637.09
2017-12-19T10:18:57.676Z,101637.61
2017-12-19T10:21:34.144Z,101635.95
2017-12-19T10:24:09.473Z,101638.78
2017-12-19T10:26:44.629Z,101634.11
2017-12-19T10:29:19.639Z,101637.25
2017-12-19T10:31:53.541Z,101640.63
2017-12-19T10:34:29.892Z,101636.28
2017-12-19T10:37:05.932Z,101631.45
2017-12-19T10:39:42.777Z,101634.17
2017-12-19T10:42:17.160Z,101630.64
2017-12-19T10:44:51.445Z,101636.67
2017-12-19T10:47:28.079Z,101630.52
2017-12-19T10:50:02.808Z,101634.05
2017-12-19T10:52:44.191Z,101644.27
2017-12-19T10:55:19.581Z,101646.90
2017-12-19T10:57:57.582Z,101649.40
2017-12-19T11:00:41.884Z,101644.81
2017-12-19T11:03:16.250Z,101646.56
2017-12-19T11:05:51.882Z,101643.67
2017-12-19T11:08:27.234Z,101646.98
2017-12-19T11:11:06.135Z,101642.52
2017-12-19T11:13:42.783Z,101638.70
2017-12-19T11:16:20.029Z,101640.59
2017-12-19T11:18:57.509Z,101648.41
2017-12-19T11:21:37.744Z,101646.63
2017-12-19T11:24:18.847Z,101634.33
2017-12-19T11:26:53.409Z,101621.56
2017-12-19T11:29:34.189Z,101615.16
2017-12-19T11:32:21.311Z,101609.66
2017-12-19T11:34:57.216Z,101608.70
2017-12-19T11:37:38.722Z,101603.03
2017-12-19T11:40:15.033Z,101602.45
2017-12-19T11:42:50.152Z,101608.33
2017-12-19T11:45:28.782Z,101607.94
2017-12-19T11:48:14.869Z,101607.15
2017-12-19T11:50:51.170Z,101604.67
2017-12-19T11:53:33.894Z,101590.27
2017-12-19T11:56:21.858Z,101583.91
2017-12-19T11:58:58.975Z,101580.48
2017-12-19T12:01:38.804Z,101582.59
2017-12-19T12:04:16.536Z,101584.28
2017-12-19T12:06:54.498Z,101583.04
2017-12-19T12:09:35.714Z,101578.22
2017-12-19T12:12:14.672Z,101575.52
2017-12-19T12:14:52.172Z,101580.88
2017-12-19T12:17:30.941Z,101585.27
2017-12-19T12:20:10.739Z,101591.39
2017-12-19T12:22:50.576Z,101585.31
2017-12-19T12:28:18.378Z,101583.64
2017-12-19T12:31:05.135Z,101586.57
2017-12-19T12:33:52.049Z,101590.89
2017-12-19T12:36:40.612Z,101591.09
2017-12-19T12:42:15.620Z,101587.44
2017-12-19T12:45:04.982Z,101588.06
2017-12-19T12:47:49.358Z,101583.76
2017-12-19T12:50:33.640Z,101589.83
2017-12-19T12:53:17.327Z,101587.09
2017-12-19T12:55:59.664Z,101583.21
2017-12-19T12:58:40.317Z,101571.28
2017-12-19T13:01:20.509Z,101576.53
2017-12-19T13:04:05.604Z,101574.75
2017-12-19T13:06:53.249Z,101571.38
2017-12-19T13:09:46.754Z,101573.58
2017-12-19T13:12:32.612Z,101571.50
2017-12-19T13:15:14.520Z,101571.70
2017-12-19T13:17:59.609Z,101575.07
2017-12-19T13:20:44.629Z,101571.59
2017-12-19T13:23:47.217Z,101568.16
2017-12-19T13:26:37.787Z,101572.44
2017-12-19T13:29:24.505Z,101575.39
2017-12-19T13:35:06.193Z,101568.87
2017-12-19T13:37:54.369Z,101565.41
2017-12-19T13:40:41.788Z,101565.95
2017-12-19T13:43:25.307Z,101563.33
2017-12-19T13:46:10.341Z,101562.06
2017-12-19T13:48:55.646Z,101556.95
2017-12-19T13:51:43.364Z,101563.30
2017-12-19T13:54:25.456Z,101562.69
2017-12-19T13:57:11.770Z,101554.22
2017-12-19T14:00:11.306Z,101562.78
2017-12-19T14:03:05.489Z,101563.20
2017-12-19T14:05:48.082Z,101572.02
2017-12-19T14:08:35.002Z,101567.61
2017-12-19T14:11:18.985Z,101575.88
2017-12-19T14:14:02.786Z,101570.66
2017-12-19T14:16:56.422Z,101572.96
2017-12-19T14:19:48.503Z,101569.49
2017-12-19T14:22:28.400Z,101564.79
2017-12-19T14:25:18.996Z,101556.61
2017-12-19T14:28:02.910Z,101558.72
2017-12-19T14:30:53.714Z,101559.34
2017-12-19T14:33:40.238Z,101556.52
2017-12-19T14:36:27.033Z,101555.48
2017-12-19T14:39:17.043Z,101559.34
2017-12-19T14:41:59.592Z,101550.78
2017-12-19T14:44:59.403Z,101554.73
2017-12-19T14:47:58.519Z,101551.69
2017-12-19T14:50:47.419Z,101560.28
2017-12-19T14:53:30.425Z,101546.46
2017-12-19T14:56:23.090Z,101551.68
2017-12-19T14:59:05.271Z,101549.89
2017-12-19T15:02:05.495Z,101546.55
2017-12-19T15:04:49.969Z,101541.43
2017-12-19T15:07:43.901Z,101538.48
2017-12-19T15:10:27.758Z,101537.44
2017-12-19T15:13:12.419Z,101537.63
2017-12-19T15:16:08.950Z,101533.35
2017-12-19T15:18:55.813Z,101536.59
2017-12-19T15:21:39.640Z,101541.81
2017-12-19T15:24:28.566Z,101532.83
2017-12-19T15:30:26.836Z,101543.41
2017-12-19T15:33:16.823Z,101533.22
2017-12-19T15:35:59.345Z,101548.42
2017-12-19T15:38:57.790Z,101550.83
2017-12-19T15:41:52.148Z,101551.24
2017-12-19T15:44:45.398Z,101553.87
2017-12-19T15:47:40.103Z,101557.02
2017-12-19T15:53:36.333Z,101559.75
2017-12-19T15:56:22.266Z,101561.11
2017-12-19T15:59:06.387Z,101556.27
2017-12-19T16:01:54.840Z,101564.11
2017-12-19T16:04:42.342Z,101556.27
2017-12-19T16:07:26.958Z,101560.44
2017-12-19T16:13:03.262Z,101562.74
2017-12-19T16:15:59.457Z,101558.13
2017-12-19T16:19:09.857Z,101560.86
2017-12-19T16:22:10.604Z,101557.98
2017-12-19T16:25:15.417Z,101558.22
2017-12-19T16:28:14.204Z,101566.91
2017-12-19T16:31:05.304Z,101569.63
2017-12-19T16:33:46.990Z,101566.33
2017-12-19T16:36:28.782Z,101561.80
2017-12-19T16:39:13.387Z,101561.92
2017-12-19T16:42:01.784Z,101564.45
2017-12-19T16:44:45.470Z,101573.56
2017-12-19T16:47:31.537Z,101572.58
2017-12-19T16:50:14.813Z,101576.74
2017-12-19T16:53:01.257Z,101581.48
2017-12-19T16:55:47.249Z,101582.51
2017-12-19T16:58:32.990Z,101583.64
2017-12-19T17:01:16.797Z,101587.92
2017-12-19T17:03:58.445Z,101587.78
2017-12-19T17:06:41.292Z,101585.53
2017-12-19T17:09:28.798Z,101591.81
2017-12-19T17:12:09.765Z,101586.73
2017-12-19T17:15:05.577Z,101590.20
2017-12-19T17:17:46.076Z,101590.81
2017-12-19T17:20:40.345Z,101590.80
2017-12-19T17:26:31.854Z,101585.64
2017-12-19T17:29:19.084Z,101586.70
2017-12-19T17:32:08.616Z,101588.67
2017-12-19T17:34:52.585Z,101587.19
2017-12-19T17:37:41.024Z,101581.91
2017-12-19T17:40:30.079Z,101581.37
2017-12-19T17:43:17.251Z,101585.22
2017-12-19T17:46:05.182Z,101589.11
2017-12-19T17:48:50.221Z,101589.94
2017-12-19T17:51:37.959Z,101583.72
2017-12-19T17:54:21.049Z,101579.50
2017-12-19T17:57:07.408Z,101586.83
2017-12-19T17:59:53.708Z,101582.70
2017-12-19T18:02:39.006Z,101586.56
2017-12-19T18:05:41.798Z,101580.37
2017-12-19T18:08:27.395Z,101588.33
2017-12-19T18:11:16.448Z,101587.36
2017-12-19T18:14:06.852Z,101584.39
2017-12-19T18:17:01.824Z,101582.08
2017-12-19T18:19:50.897Z,101576.80
2017-12-19T18:22:38.223Z,101585.08
2017-12-19T18:25:24.316Z,101587.28
2017-12-19T18:28:15.120Z,101590.44
2017-12-19T18:31:08.251Z,101593.98
2017-12-19T18:36:49.270Z,101594.35
2017-12-19T18:39:41.515Z,101602.94
2017-12-19T18:42:26.675Z,101600.73
2017-12-19T18:45:31.679Z,101598.40
2017-12-19T18:48:14.908Z,101599.87
2017-12-19T18:50:51.340Z,101592.83
2017-12-19T18:53:25.335Z,101585.87
2017-12-19T18:55:59.028Z,101579.28
2017-12-19T18:58:34.218Z,101583.66
2017-12-19T19:01:07.875Z,101577.86
2017-12-19T19:03:41.714Z,101577.25
2017-12-19T19:06:15.860Z,101579.45
2017-12-19T19:08:49.414Z,101575.26
2017-12-19T19:11:23.188Z,101584.74
2017-12-19T19:13:57.304Z,101589.17
2017-12-19T19:16:31.123Z,101582.58
2017-12-19T19:19:05.768Z,101577.38
2017-12-19T19:21:37.850Z,101585.36
2017-12-19T19:24:09.868Z,101586.65
2017-12-19T19:26:41.893Z,101586.08
2017-12-19T19:29:14.087Z,101590.00
2017-12-19T19:31:47.151Z,101588.42
2017-12-19T19:34:21.802Z,101587.91
2017-12-19T19:36:54.092Z,101583.53
2017-12-19T19:39:27.857Z,101589.37
2017-12-19T19:42:01.495Z,101588.59
2017-12-19T19:44:35.644Z,101589.67
2017-12-19T19:47:09.403Z,101589.87
2017-12-19T19:49:41.317Z,101593.67
2017-12-19T19:52:14.992Z,101588.73
2017-12-19T19:54:48.688Z,101594.62
2017-12-19T19:57:22.772Z,101589.51
2017-12-19T19:59:56.672Z,101593.28
2017-12-19T20:02:30.432Z,101591.05
2017-12-19T20:05:04.159Z,101593.69
2017-12-19T20:07:37.811Z,101597.06
2017-12-19T20:10:11.528Z,101591.09
2017-12-19T20:12:45.160Z,101595.09
2017-12-19T20:15:19.407Z,101591.62
2017-12-19T20:17:51.394Z,101593.94
2017-12-19T20:20:25.411Z,101590.70
2017-12-19T20:22:58.924Z,101599.20
2017-12-19T20:25:32.670Z,101600.98
2017-12-19T20:28:06.879Z,101610.11
2017-12-19T20:30:40.979Z,101613.26
2017-12-19T20:33:15.715Z,101611.70
2017-12-19T20:35:49.522Z,101614.30
2017-12-19T20:38:23.387Z,101605.69
2017-12-19T20:40:57.039Z,101613.45
2017-12-19T20:43:30.807Z,101605.08
2017-12-19T20:46:06.562Z,101605.27
2017-12-19T20:48:38.867Z,101608.84
2017-12-19T20:51:13.587Z,101605.17
2017-12-19T20:53:47.328Z,101605.50
2017-12-19T20:56:20.890Z,101600.89
2017-12-19T20:58:55.512Z,101596.48
2017-12-19T21:01:29.621Z,101594.45
2017-12-19T21:04:03.412Z,101592.80
2017-12-19T21:06:37.211Z,101583.13
2017-12-19T21:09:11.011Z,101585.56
2017-12-19T21:11:45.576Z,101586.28
2017-12-19T21:14:19.256Z,101583.88
2017-12-19T21:16:53.477Z,101578.95
2017-12-19T21:19:27.321Z,101565.33
2017-12-19T21:22:01.019Z,101571.43
2017-12-19T21:24:34.786Z,101565.11
2017-12-19T21:27:09.292Z,101562.48
2017-12-19T21:29:43.924Z,101559.95
2017-12-19T21:32:15.998Z,101553.88
2017-12-19T21:34:49.668Z,101558.81
2017-12-19T21:37:24.234Z,101561.70
2017-12-19T21:39:57.972Z,101559.42
2017-12-19T21:42:31.572Z,101557.97
2017-12-19T21:45:06.726Z,101549.80
2017-12-19T21:47:40.959Z,101555.38
2017-12-19T21:50:14.484Z,101556.30
2017-12-19T21:52:48.088Z,101556.91
2017-12-19T21:55:21.749Z,101562.16
2017-12-19T21:57:55.586Z,101561.22
2017-12-19T22:00:29.268Z,101558.30
2017-12-19T22:03:03.423Z,101558.30
2017-12-19T22:05:36.957Z,101555.06
2017-12-19T22:08:11.391Z,101559.77
2017-12-19T22:10:45.407Z,101562.49
2017-12-19T22:13:19.780Z,101564.92
2017-12-19T22:15:53.644Z,101571.73
2017-12-19T22:18:27.398Z,101569.63
2017-12-19T22:21:01.105Z,101571.18
2017-12-19T22:23:35.782Z,101572.47
2017-12-19T22:26:09.841Z,101563.77
2017-12-19T22:28:43.675Z,101566.59
2017-12-19T22:31:17.265Z,101559.78
2017-12-19T22:33:50.790Z,101562.92
2017-12-19T22:36:24.932Z,101556.44
2017-12-19T22:38:58.638Z,101553.72
2017-12-19T22:41:32.491Z,101554.12
2017-12-19T22:44:06.565Z,101549.09
2017-12-19T22:46:40.300Z,101541.24
2017-12-19T22:49:14.668Z,101539.45
2017-12-19T22:51:48.490Z,101533.92
2017-12-19T22:54:22.200Z,101545.75
2017-12-19T22:56:56.289Z,101545.95
2017-12-19T22:59:29.858Z,101561.88
2017-12-19T23:02:03.472Z,101561.77
2017-12-19T23:04:36.980Z,101566.69
2017-12-19T23:07:10.681Z,101553.70
2017-12-19T23:09:44.275Z,101555.58
2017-12-19T23:12:17.876Z,101551.39
2017-12-19T23:14:51.990Z,101554.87
2017-12-19T23:17:27.334Z,101550.56
2017-12-19T23:20:01.173Z,101549.94
2017-12-19T23:22:34.891Z,101551.40
2017-12-19T23:25:08.465Z,101542.29
2017-12-19T23:27:42.221Z,101543.95
2017-12-19T23:30:16.191Z,101548.87
2017-12-19T23:32:50.011Z,101549.20
2017-12-19T23:35:24.098Z,101547.09
2017-12-19T23:37:58.023Z,101542.91
2017-12-19T23:40:31.717Z,101536.94
2017-12-19T23:43:05.770Z,101525.49
2017-12-19T23:45:39.383Z,101516.80
2017-12-19T23:48:14.048Z,101506.00
2017-12-19T23:50:47.666Z,101503.09
2017-12-19T23:53:21.484Z,101502.34
2017-12-19T23:55:55.090Z,101511.34
2017-12-19T23:58:29.098Z,101515.95
